createdAt,value
2023-05-19T00:01:48.264Z,83.55
2023-05-19T00:04:18.318Z,79.73
2023-05-19T00:06:52.151Z,77.72
2023-05-19T00:09:21.954Z,78.45
2023-05-19T00:11:51.578Z,79.58
2023-05-19T00:14:21.189Z,80.00
2023-05-19T00:16:52.349Z,80.08
2023-05-19T00:19:22.192Z,82.20
2023-05-19T00:21:51.441Z,80.74
2023-05-19T00:24:20.432Z,80.48
2023-05-19T00:26:49.545Z,82.04
2023-05-19T00:29:19.267Z,81.32
2023-05-19T00:31:48.533Z,88.70
2023-05-19T00:34:18.858Z,89.87
2023-05-19T00:36:47.997Z,89.25
2023-05-19T00:39:20.004Z,91.09
2023-05-19T00:41:49.032Z,92.72
2023-05-19T00:44:18.324Z,90.39
2023-05-19T00:46:47.398Z,93.80
2023-05-19T00:49:18.546Z,92.75
2023-05-19T00:51:47.632Z,94.59
2023-05-19T00:54:17.687Z,91.04
2023-05-19T00:56:46.897Z,92.28
2023-05-19T00:59:15.858Z,92.38
2023-05-19T01:01:45.876Z,92.53
2023-05-19T01:04:17.094Z,90.25
2023-05-19T01:06:48.503Z,92.16
2023-05-19T01:09:18.579Z,91.67
2023-05-19T01:11:47.598Z,90.93
2023-05-19T01:14:17.234Z,92.57
2023-05-19T01:16:51.818Z,93.23
2023-05-19T01:19:39.304Z,93.07
2023-05-19T01:22:23.092Z,92.34
2023-05-19T01:25:33.622Z,99.58
2023-05-19T01:28:51.485Z,100.00
2023-05-19T01:31:24.771Z,100.00
2023-05-19T01:33:54.745Z,100.00
2023-05-19T01:36:24.557Z,100.00
2023-05-19T01:38:57.856Z,100.00
2023-05-19T01:41:28.561Z,100.00
2023-05-19T01:43:59.118Z,100.00
2023-05-19T01:46:29.483Z,100.00
2023-05-19T01:48:59.086Z,100.00
2023-05-19T01:51:29.283Z,100.00
2023-05-19T01:53:58.280Z,100.00
2023-05-19T01:56:39.504Z,100.00
2023-05-19T01:59:23.245Z,100.00
2023-05-19T02:01:58.549Z,100.00
2023-05-19T02:04:40.098Z,100.00
2023-05-19T02:07:15.859Z,100.00
2023-05-19T02:09:52.720Z,100.00
2023-05-19T02:12:27.559Z,100.00
2023-05-19T02:15:04.868Z,100.00
2023-05-19T02:17:38.107Z,100.00
2023-05-19T02:20:08.952Z,100.00
2023-05-19T02:22:39.008Z,100.00
2023-05-19T02:25:09.740Z,100.00
2023-05-19T02:27:40.086Z,100.00
2023-05-19T02:30:10.616Z,100.00
2023-05-19T02:32:41.185Z,100.00
2023-05-19T02:35:11.730Z,100.00
2023-05-19T02:37:41.864Z,100.00
2023-05-19T02:40:11.377Z,100.00
2023-05-19T02:42:40.523Z,100.00
2023-05-19T02:45:10.230Z,100.00
2023-05-19T02:47:41.581Z,100.00
2023-05-19T02:50:11.050Z,100.00
2023-05-19T02:52:39.971Z,100.00
2023-05-19T02:55:09.838Z,100.00
2023-05-19T02:57:38.764Z,100.00
2023-05-19T03:00:09.481Z,100.00
2023-05-19T03:02:38.678Z,100.00
2023-05-19T03:05:10.397Z,100.00
2023-05-19T03:07:39.306Z,100.00
2023-05-19T03:10:09.913Z,100.00
2023-05-19T03:12:38.992Z,100.00
2023-05-19T03:15:09.134Z,100.00
2023-05-19T03:17:38.113Z,100.00
2023-05-19T03:20:10.904Z,100.00
2023-05-19T03:22:39.850Z,100.00
2023-05-19T03:25:09.383Z,100.00
2023-05-19T03:27:38.384Z,100.00
2023-05-19T03:30:10.838Z,100.00
2023-05-19T03:32:55.533Z,100.00
2023-05-19T03:35:25.852Z,100.00
2023-05-19T03:37:55.021Z,100.00
2023-05-19T03:40:24.095Z,100.00
2023-05-19T03:42:58.688Z,100.00
2023-05-19T03:45:27.754Z,100.00
2023-05-19T03:47:57.197Z,100.00
2023-05-19T03:50:50.572Z,100.00
2023-05-19T03:53:25.211Z,100.00
2023-05-19T03:55:56.764Z,100.00
2023-05-19T03:58:26.954Z,100.00
2023-05-19T04:01:08.612Z,100.00
2023-05-19T04:03:38.175Z,100.00
2023-05-19T04:06:09.044Z,100.00
2023-05-19T04:08:37.999Z,100.00
2023-05-19T04:11:06.978Z,100.00
2023-05-19T04:13:36.386Z,100.00
2023-05-19T04:16:06.168Z,100.00
2023-05-19T04:18:35.269Z,100.00
2023-05-19T04:21:04.509Z,100.00
2023-05-19T04:23:35.989Z,100.00
2023-05-19T04:26:06.792Z,100.00
2023-05-19T04:28:39.008Z,100.00
2023-05-19T04:31:10.991Z,100.00
2023-05-19T04:33:40.808Z,100.00
2023-05-19T04:36:11.537Z,100.00
2023-05-19T04:38:46.761Z,100.00
2023-05-19T04:41:16.578Z,100.00
2023-05-19T04:43:48.449Z,100.00
2023-05-19T04:46:17.868Z,100.00
2023-05-19T04:48:47.867Z,100.00
2023-05-19T04:51:17.784Z,100.00
2023-05-19T04:53:49.238Z,100.00
2023-05-19T04:56:18.232Z,100.00
2023-05-19T04:58:47.497Z,100.00
2023-05-19T05:01:17.006Z,100.00
2023-05-19T05:03:46.111Z,100.00
2023-05-19T05:06:15.252Z,100.00
2023-05-19T05:08:44.186Z,100.00
2023-05-19T05:11:15.634Z,100.00
2023-05-19T05:13:45.350Z,100.00
2023-05-19T05:16:16.829Z,100.00
2023-05-19T05:18:47.007Z,100.00
2023-05-19T05:21:16.776Z,100.00
2023-05-19T05:23:46.367Z,100.00
2023-05-19T05:26:19.850Z,100.00
2023-05-19T05:28:51.287Z,100.00
2023-05-19T05:31:21.395Z,100.00
2023-05-19T05:33:50.736Z,100.00
2023-05-19T05:36:23.212Z,100.00
2023-05-19T05:38:52.179Z,100.00
2023-05-19T05:41:22.941Z,100.00
2023-05-19T05:43:54.257Z,100.00
2023-05-19T05:46:23.417Z,100.00
2023-05-19T05:48:53.212Z,100.00
2023-05-19T05:51:23.712Z,100.00
2023-05-19T05:53:54.217Z,100.00
2023-05-19T05:56:29.753Z,100.00
2023-05-19T05:58:58.936Z,100.00
2023-05-19T06:01:28.255Z,100.00
2023-05-19T06:03:59.523Z,100.00
2023-05-19T06:06:31.390Z,100.00
2023-05-19T06:09:01.927Z,100.00
2023-05-19T06:11:33.488Z,100.00
2023-05-19T06:14:05.902Z,100.00
2023-05-19T06:16:56.881Z,100.00
2023-05-19T06:19:37.024Z,100.00
2023-05-19T06:22:12.193Z,100.00
2023-05-19T06:24:41.697Z,100.00
2023-05-19T06:27:13.351Z,100.00
2023-05-19T06:29:42.287Z,100.00
2023-05-19T06:32:11.685Z,100.00
2023-05-19T06:34:42.283Z,100.00
2023-05-19T06:37:11.932Z,100.00
2023-05-19T06:39:41.409Z,100.00
2023-05-19T06:42:10.765Z,100.00
2023-05-19T06:45:01.110Z,100.00
2023-05-19T06:47:31.090Z,100.00
2023-05-19T06:50:00.616Z,100.00
2023-05-19T06:52:33.999Z,100.00
2023-05-19T06:55:04.107Z,100.00
2023-05-19T06:57:34.284Z,100.00
2023-05-19T07:00:07.018Z,100.00
2023-05-19T07:02:36.526Z,97.90
2023-05-19T07:05:11.249Z,95.94
2023-05-19T07:07:40.295Z,99.56
2023-05-19T07:10:15.173Z,100.00
2023-05-19T07:12:44.889Z,100.00
2023-05-19T07:15:16.032Z,99.80
2023-05-19T07:17:46.521Z,100.00
2023-05-19T07:20:15.713Z,94.55
2023-05-19T07:22:44.695Z,99.35
2023-05-19T07:25:14.240Z,96.93
2023-05-19T07:27:43.333Z,94.50
2023-05-19T07:30:13.511Z,93.68
2023-05-19T07:32:44.982Z,94.18
2023-05-19T07:35:18.985Z,90.17
2023-05-19T07:37:48.388Z,94.09
2023-05-19T07:40:17.824Z,89.08
2023-05-19T07:42:46.824Z,86.25
2023-05-19T07:45:16.991Z,78.00
2023-05-19T07:47:47.621Z,84.12
2023-05-19T07:50:17.063Z,88.88
2023-05-19T07:52:46.242Z,80.99
2023-05-19T07:55:15.324Z,79.88
2023-05-19T07:57:46.768Z,91.56
2023-05-19T08:00:17.047Z,85.60
2023-05-19T08:02:50.151Z,89.17
2023-05-19T08:05:19.563Z,84.28
2023-05-19T08:07:48.833Z,79.83
2023-05-19T08:10:18.070Z,83.95
2023-05-19T08:12:47.661Z,83.24
2023-05-19T08:15:16.916Z,89.26
2023-05-19T08:17:47.550Z,88.45
2023-05-19T08:20:17.198Z,81.81
2023-05-19T08:22:47.092Z,76.77
2023-05-19T08:25:16.202Z,72.47
2023-05-19T08:27:45.071Z,69.42
2023-05-19T08:30:14.546Z,68.27
2023-05-19T08:32:43.744Z,74.99
2023-05-19T08:35:14.284Z,73.29
2023-05-19T08:37:43.513Z,76.17
2023-05-19T08:40:19.370Z,77.96
2023-05-19T08:42:50.283Z,78.89
2023-05-19T08:45:19.551Z,82.85
2023-05-19T08:47:48.814Z,86.12
2023-05-19T08:50:24.972Z,86.32
2023-05-19T08:52:58.013Z,87.27
2023-05-19T08:55:34.007Z,90.04
2023-05-19T08:58:05.331Z,85.93
2023-05-19T09:00:35.286Z,76.71
2023-05-19T09:03:17.428Z,88.75
2023-05-19T09:05:53.874Z,82.18
2023-05-19T09:08:23.239Z,80.17
2023-05-19T09:10:52.171Z,78.88
2023-05-19T09:13:21.082Z,71.56
2023-05-19T09:15:51.643Z,66.17
2023-05-19T09:18:21.141Z,60.49
2023-05-19T09:20:50.248Z,57.91
2023-05-19T09:23:21.175Z,56.52
2023-05-19T09:25:51.032Z,60.35
2023-05-19T09:28:28.120Z,60.62
2023-05-19T09:31:04.211Z,61.29
2023-05-19T09:33:35.622Z,55.38
2023-05-19T09:36:06.256Z,52.49
2023-05-19T09:38:40.057Z,51.39
2023-05-19T09:41:09.920Z,52.65
2023-05-19T09:43:39.047Z,51.72
2023-05-19T09:46:11.240Z,52.35
2023-05-19T09:48:42.734Z,50.95
2023-05-19T09:51:11.788Z,51.15
2023-05-19T09:53:44.929Z,51.18
2023-05-19T09:56:16.334Z,51.75
2023-05-19T09:58:45.469Z,51.25
2023-05-19T10:01:15.158Z,55.48
2023-05-19T10:03:45.654Z,53.73
2023-05-19T10:06:16.780Z,50.44
2023-05-19T10:08:49.419Z,49.88
2023-05-19T10:11:19.290Z,47.19
2023-05-19T10:13:52.094Z,50.97
2023-05-19T10:16:23.285Z,48.20
2023-05-19T10:18:54.424Z,47.88
2023-05-19T10:21:23.750Z,47.54
2023-05-19T10:23:54.443Z,47.04
2023-05-19T10:26:24.816Z,44.81
2023-05-19T10:28:54.215Z,44.40
2023-05-19T10:31:25.834Z,39.87
2023-05-19T10:34:09.708Z,39.53
2023-05-19T10:36:47.800Z,39.10
2023-05-19T10:39:27.933Z,42.72
2023-05-19T10:42:09.007Z,40.29
2023-05-19T10:44:54.530Z,44.12
2023-05-19T10:47:26.415Z,45.90
2023-05-19T10:49:55.907Z,50.19
2023-05-19T10:52:29.740Z,53.37
2023-05-19T10:55:00.175Z,57.10
2023-05-19T10:57:31.992Z,61.85
2023-05-19T11:00:01.551Z,57.85
2023-05-19T11:02:41.944Z,68.21
2023-05-19T11:05:13.016Z,64.07
2023-05-19T11:07:46.059Z,65.75
2023-05-19T11:10:24.364Z,50.60
2023-05-19T11:12:53.844Z,47.38
2023-05-19T11:15:27.583Z,42.21
2023-05-19T11:17:57.205Z,43.23
2023-05-19T11:20:27.704Z,47.68
2023-05-19T11:23:07.472Z,47.86
2023-05-19T11:25:45.630Z,45.57
2023-05-19T11:28:17.409Z,47.67
2023-05-19T11:30:50.459Z,51.44
2023-05-19T11:33:20.689Z,51.14
2023-05-19T11:35:51.263Z,50.16
2023-05-19T11:38:20.937Z,47.35
2023-05-19T11:40:54.501Z,45.47
2023-05-19T11:43:27.794Z,45.85
2023-05-19T11:45:57.359Z,38.37
2023-05-19T11:48:27.852Z,40.76
2023-05-19T11:50:57.039Z,38.80
2023-05-19T11:53:26.169Z,36.13
2023-05-19T11:55:56.653Z,38.56
2023-05-19T11:58:29.835Z,43.61
2023-05-19T12:00:59.228Z,48.42
2023-05-19T12:03:29.788Z,56.60
2023-05-19T12:05:59.201Z,59.61
2023-05-19T12:08:28.357Z,57.55
2023-05-19T12:10:58.988Z,64.31
2023-05-19T12:13:34.511Z,52.04
2023-05-19T12:16:06.954Z,68.40
2023-05-19T12:18:38.704Z,78.71
2023-05-19T12:21:08.053Z,76.88
2023-05-19T12:23:37.158Z,76.91
2023-05-19T12:26:07.581Z,71.32
2023-05-19T12:28:37.410Z,75.62
2023-05-19T12:31:07.106Z,88.05
2023-05-19T12:33:36.157Z,90.23
2023-05-19T12:36:09.138Z,77.45
2023-05-19T12:38:39.776Z,77.71
2023-05-19T12:41:12.622Z,66.51
2023-05-19T12:43:42.472Z,82.30
2023-05-19T12:46:15.462Z,100.00
2023-05-19T12:48:45.171Z,95.35
2023-05-19T12:51:18.942Z,91.95
2023-05-19T12:53:48.517Z,83.86
2023-05-19T12:56:19.008Z,81.44
2023-05-19T12:58:54.532Z,80.36
2023-05-19T13:01:24.426Z,64.54
2023-05-19T13:03:53.990Z,61.10
2023-05-19T13:06:26.103Z,47.96
2023-05-19T13:08:54.991Z,52.10
2023-05-19T13:11:25.255Z,46.19
2023-05-19T13:13:54.242Z,39.42
2023-05-19T13:16:24.028Z,55.04
2023-05-19T13:18:53.589Z,63.10
2023-05-19T13:21:22.613Z,59.40
2023-05-19T13:23:52.459Z,72.96
2023-05-19T13:26:21.610Z,100.00
2023-05-19T13:28:51.991Z,100.00
2023-05-19T13:31:21.203Z,100.00
2023-05-19T13:33:50.369Z,100.00
2023-05-19T13:36:19.372Z,100.00
2023-05-19T13:38:50.665Z,100.00
2023-05-19T13:41:25.154Z,93.25
2023-05-19T13:43:55.638Z,100.00
2023-05-19T13:46:36.368Z,91.66
2023-05-19T13:49:13.363Z,64.23
2023-05-19T13:51:45.016Z,60.40
2023-05-19T13:54:13.957Z,53.54
2023-05-19T13:56:48.697Z,48.07
2023-05-19T13:59:19.014Z,47.42
2023-05-19T14:01:48.254Z,72.73
2023-05-19T14:04:18.980Z,73.76
2023-05-19T14:06:48.471Z,100.00
2023-05-19T14:09:17.550Z,87.39
2023-05-19T14:11:46.856Z,80.18
2023-05-19T14:14:16.543Z,86.28
2023-05-19T14:16:47.140Z,100.00
2023-05-19T14:19:18.654Z,100.00
2023-05-19T14:21:47.498Z,100.00
2023-05-19T14:24:17.175Z,100.00
2023-05-19T14:26:46.625Z,100.00
2023-05-19T14:29:19.991Z,100.00
2023-05-19T14:31:50.608Z,100.00
2023-05-19T14:34:21.222Z,100.00
2023-05-19T14:36:50.252Z,100.00
2023-05-19T14:39:19.631Z,100.00
2023-05-19T14:41:51.305Z,100.00
2023-05-19T14:44:22.952Z,100.00
2023-05-19T14:46:54.544Z,100.00
2023-05-19T14:49:23.819Z,100.00
2023-05-19T14:51:53.161Z,100.00
2023-05-19T14:54:22.307Z,100.00
2023-05-19T14:56:51.867Z,100.00
2023-05-19T14:59:21.760Z,100.00
2023-05-19T15:01:50.930Z,100.00
2023-05-19T15:04:21.548Z,100.00
2023-05-19T15:07:05.941Z,100.00
2023-05-19T15:09:38.613Z,100.00
2023-05-19T15:12:08.832Z,100.00
2023-05-19T15:14:37.872Z,100.00
2023-05-19T15:17:07.037Z,100.00
2023-05-19T15:19:41.083Z,100.00
2023-05-19T15:22:10.311Z,100.00
2023-05-19T15:24:39.277Z,100.00
2023-05-19T15:27:09.203Z,100.00
2023-05-19T15:29:38.886Z,100.00
2023-05-19T15:32:09.785Z,100.00
2023-05-19T15:34:43.273Z,100.00
2023-05-19T15:37:12.361Z,100.00
2023-05-19T15:39:41.858Z,100.00
2023-05-19T15:42:11.441Z,100.00
2023-05-19T15:44:40.477Z,100.00
2023-05-19T15:47:09.807Z,100.00
2023-05-19T15:49:39.243Z,100.00
2023-05-19T15:52:09.816Z,100.00
2023-05-19T15:54:38.735Z,100.00
2023-05-19T15:57:07.763Z,100.00
2023-05-19T15:59:36.833Z,100.00
2023-05-19T16:02:06.346Z,100.00
2023-05-19T16:04:35.815Z,100.00
2023-05-19T16:07:05.746Z,100.00
2023-05-19T16:09:36.120Z,100.00
2023-05-19T16:12:05.985Z,100.00
2023-05-19T16:14:40.340Z,100.00
2023-05-19T16:17:11.799Z,100.00
2023-05-19T16:19:40.778Z,100.00
2023-05-19T16:22:09.803Z,100.00
2023-05-19T16:24:43.016Z,100.00
2023-05-19T16:27:14.268Z,100.00
2023-05-19T16:29:43.521Z,100.00
2023-05-19T16:32:12.947Z,100.00
2023-05-19T16:34:42.434Z,100.00
2023-05-19T16:37:14.347Z,100.00
2023-05-19T16:39:45.152Z,100.00
2023-05-19T16:42:14.370Z,100.00
2023-05-19T16:44:43.553Z,100.00
2023-05-19T16:47:12.640Z,100.00
2023-05-19T16:49:41.855Z,100.00
2023-05-19T16:52:13.483Z,100.00
2023-05-19T16:55:57.282Z,100.00
2023-05-19T16:57:39.913Z,100.00
2023-05-19T17:00:10.463Z,100.00
2023-05-19T17:02:39.908Z,100.00
2023-05-19T17:05:09.907Z,100.00
2023-05-19T17:07:39.212Z,100.00
2023-05-19T17:10:10.980Z,100.00
2023-05-19T17:12:40.013Z,100.00
2023-05-19T17:15:09.801Z,100.00
2023-05-19T17:17:40.239Z,100.00
2023-05-19T17:20:10.618Z,100.00
2023-05-19T17:22:39.805Z,100.00
2023-05-19T17:25:11.346Z,100.00
2023-05-19T17:27:40.657Z,100.00
2023-05-19T17:30:14.460Z,100.00
2023-05-19T17:32:43.678Z,100.00
2023-05-19T17:35:13.026Z,100.00
2023-05-19T17:37:42.072Z,100.00
2023-05-19T17:40:13.678Z,100.00
2023-05-19T17:42:42.692Z,100.00
2023-05-19T17:45:13.079Z,100.00
2023-05-19T17:47:45.287Z,100.00
2023-05-19T17:50:15.155Z,100.00
2023-05-19T17:52:44.974Z,100.00
2023-05-19T17:55:16.501Z,100.00
2023-05-19T17:57:47.356Z,100.00
2023-05-19T18:00:17.069Z,100.00
2023-05-19T18:02:46.829Z,100.00
2023-05-19T18:05:17.296Z,100.00
2023-05-19T18:07:46.966Z,100.00
2023-05-19T18:10:18.430Z,100.00
2023-05-19T18:12:47.426Z,100.00
2023-05-19T18:15:16.918Z,100.00
2023-05-19T18:17:46.446Z,100.00
2023-05-19T18:20:17.298Z,100.00
2023-05-19T18:22:47.069Z,100.00
2023-05-19T18:25:18.635Z,100.00
2023-05-19T18:27:47.746Z,100.00
2023-05-19T18:30:16.807Z,100.00
2023-05-19T18:32:45.936Z,100.00
2023-05-19T18:35:15.303Z,100.00
2023-05-19T18:37:44.319Z,100.00
2023-05-19T18:40:13.437Z,100.00
2023-05-19T18:42:44.192Z,100.00
2023-05-19T18:45:13.907Z,100.00
2023-05-19T18:47:43.322Z,100.00
2023-05-19T18:50:13.229Z,100.00
2023-05-19T18:52:42.270Z,100.00
2023-05-19T18:55:11.640Z,100.00
2023-05-19T18:57:41.968Z,100.00
2023-05-19T19:00:14.789Z,100.00
2023-05-19T19:02:44.198Z,100.00
2023-05-19T19:05:13.988Z,100.00
2023-05-19T19:07:44.753Z,100.00
2023-05-19T19:10:15.242Z,100.00
2023-05-19T19:12:44.421Z,100.00
2023-05-19T19:15:15.472Z,100.00
2023-05-19T19:17:45.778Z,100.00
2023-05-19T19:20:15.222Z,100.00
2023-05-19T19:22:44.549Z,100.00
2023-05-19T19:25:13.692Z,100.00
2023-05-19T19:27:42.792Z,100.00
2023-05-19T19:30:17.356Z,100.00
2023-05-19T19:32:51.816Z,100.00
2023-05-19T19:35:23.288Z,100.00
2023-05-19T19:37:52.961Z,100.00
2023-05-19T19:40:22.060Z,100.00
2023-05-19T19:42:51.144Z,100.00
2023-05-19T19:45:22.101Z,100.00
2023-05-19T19:47:51.913Z,100.00
2023-05-19T19:50:21.215Z,100.00
2023-05-19T19:52:52.903Z,100.00
2023-05-19T19:55:22.176Z,100.00
2023-05-19T19:57:51.403Z,100.00
2023-05-19T20:00:24.801Z,100.00
2023-05-19T20:03:03.674Z,100.00
2023-05-19T20:05:33.976Z,100.00
2023-05-19T20:08:05.756Z,100.00
2023-05-19T20:10:35.159Z,100.00
2023-05-19T20:13:07.810Z,100.00
2023-05-19T20:15:38.313Z,100.00
2023-05-19T20:18:07.363Z,100.00
2023-05-19T20:20:37.110Z,100.00
2023-05-19T20:23:07.737Z,100.00
2023-05-19T20:25:53.726Z,100.00
2023-05-19T20:28:28.165Z,100.00
2023-05-19T20:30:59.134Z,100.00
2023-05-19T20:33:28.329Z,100.00
2023-05-19T20:35:58.164Z,100.00
2023-05-19T20:38:27.340Z,100.00
2023-05-19T20:40:59.600Z,100.00
2023-05-19T20:43:32.048Z,100.00
2023-05-19T20:46:03.886Z,100.00
2023-05-19T20:48:33.227Z,100.00
2023-05-19T20:51:02.784Z,100.00
2023-05-19T20:53:31.816Z,100.00
2023-05-19T20:56:05.265Z,100.00
2023-05-19T20:58:34.151Z,100.00
2023-05-19T21:01:04.668Z,100.00
2023-05-19T21:03:33.813Z,100.00
2023-05-19T21:06:03.270Z,100.00
2023-05-19T21:08:32.496Z,100.00
2023-05-19T21:11:01.790Z,100.00
2023-05-19T21:13:31.774Z,100.00
2023-05-19T21:16:00.900Z,100.00
2023-05-19T21:18:31.400Z,100.00
2023-05-19T21:21:03.737Z,100.00
2023-05-19T21:23:32.961Z,100.00
2023-05-19T21:26:02.148Z,100.00
2023-05-19T21:28:31.410Z,100.00
2023-05-19T21:31:05.483Z,100.00
2023-05-19T21:33:36.059Z,100.00
2023-05-19T21:36:15.716Z,100.00
2023-05-19T21:38:47.561Z,100.00
2023-05-19T21:41:16.677Z,100.00
2023-05-19T21:43:47.909Z,100.00
2023-05-19T21:46:16.977Z,100.00
2023-05-19T21:48:47.397Z,100.00
2023-05-19T21:51:16.659Z,100.00
2023-05-19T21:53:46.146Z,100.00
2023-05-19T21:56:16.427Z,100.00
2023-05-19T21:58:45.555Z,100.00
2023-05-19T22:01:14.729Z,100.00
2023-05-19T22:03:43.705Z,100.00
2023-05-19T22:06:14.223Z,100.00
2023-05-19T22:08:46.052Z,100.00
2023-05-19T22:11:18.041Z,100.00
2023-05-19T22:13:48.833Z,100.00
2023-05-19T22:16:17.847Z,100.00
2023-05-19T22:18:58.214Z,100.00
2023-05-19T22:21:29.278Z,100.00
2023-05-19T22:23:58.407Z,100.00
2023-05-19T22:26:27.448Z,100.00
2023-05-19T22:28:56.816Z,100.00
2023-05-19T22:31:25.936Z,100.00
2023-05-19T22:33:55.335Z,100.00
2023-05-19T22:36:24.828Z,100.00
2023-05-19T22:38:55.245Z,100.00
2023-05-19T22:41:24.238Z,100.00
2023-05-19T22:43:53.169Z,100.00
2023-05-19T22:46:22.233Z,100.00
2023-05-19T22:48:51.254Z,100.00
2023-05-19T22:51:20.343Z,100.00
2023-05-19T22:53:49.593Z,100.00
2023-05-19T22:56:19.921Z,100.00
2023-05-19T22:58:48.935Z,100.00
2023-05-19T23:01:18.913Z,100.00
2023-05-19T23:03:48.229Z,100.00
2023-05-19T23:06:17.378Z,100.00
2023-05-19T23:08:48.474Z,100.00
2023-05-19T23:11:17.420Z,100.00
2023-05-19T23:13:47.758Z,100.00
2023-05-19T23:16:16.846Z,100.00
2023-05-19T23:18:46.400Z,100.00
2023-05-19T23:21:15.336Z,100.00
2023-05-19T23:23:44.399Z,100.00
2023-05-19T23:26:14.360Z,100.00
2023-05-19T23:28:45.355Z,100.00
2023-05-19T23:31:15.762Z,100.00
2023-05-19T23:33:44.906Z,100.00
2023-05-19T23:36:14.689Z,100.00
2023-05-19T23:38:43.816Z,100.00
2023-05-19T23:41:13.011Z,100.00
2023-05-19T23:43:42.051Z,100.00
2023-05-19T23:46:11.326Z,100.00
2023-05-19T23:48:44.059Z,100.00
2023-05-19T23:51:13.344Z,100.00
2023-05-19T23:53:43.230Z,100.00
2023-05-19T23:56:12.521Z,100.00
2023-05-19T23:58:41.428Z,100.00
